Time;durP1;ratioP1;P1;durP2;ratioP2;P2;SDS_P1;SDS_P2;PMS_P1;PMS_P2;Temp;Humidity;BMP_temperature;BMP_pressure;BME280_temperature;BME280_humidity;BME280_pressure;Samples;Min_cycle;Max_cycle;Signal;HPM_P1;HPM_P2
2023/03/11 00:00:25;;;;;;;12.48;6.35;;;;;;;-0.24;100.00;97096.81;5139092;27;20408;-66
2023/03/11 00:02:54;;;;;;;15.55;6.60;;;;;;;-0.21;100.00;97108.81;5139355;28;20047;-63
2023/03/11 00:05:23;;;;;;;10.93;6.35;;;;;;;-0.13;100.00;97104.41;5138961;27;20047;-63
2023/03/11 00:07:49;;;;;;;12.07;6.63;;;;;;;-0.29;100.00;97115.13;5139237;28;20204;-67
2023/03/11 00:10:19;;;;;;;9.88;6.43;;;;;;;-0.18;100.00;97108.13;5139105;28;20451;-62
2023/03/11 00:12:45;;;;;;;11.48;6.22;;;;;;;-0.43;100.00;97107.47;5138914;27;20472;-68
2023/03/11 00:15:12;;;;;;;12.80;6.70;;;;;;;-0.07;100.00;97086.84;5139180;28;20400;-64
2023/03/11 00:17:39;;;;;;;12.38;7.13;;;;;;;-0.26;100.00;97095.59;5138833;28;20433;-63
2023/03/11 00:20:07;;;;;;;10.85;6.40;;;;;;;-0.31;100.00;97085.84;5139246;27;20134;-68
2023/03/11 00:22:33;;;;;;;11.10;6.68;;;;;;;-0.12;100.00;97081.72;5138792;28;20176;-64
2023/03/11 00:24:59;;;;;;;13.13;7.20;;;;;;;-0.14;100.00;97076.69;5139189;27;20305;-66
2023/03/11 00:27:25;;;;;;;11.60;6.57;;;;;;;-0.10;100.00;97072.19;5138627;28;20096;-63
2023/03/11 00:29:51;;;;;;;14.02;7.45;;;;;;;-0.10;100.00;97064.09;5138897;28;20484;-63
2023/03/11 00:32:17;;;;;;;14.65;7.65;;;;;;;0.00;100.00;97062.81;5138584;27;20377;-62
2023/03/11 00:34:43;;;;;;;17.13;6.80;;;;;;;-0.11;100.00;97067.91;5138689;27;20074;-62
2023/03/11 00:37:09;;;;;;;18.35;8.30;;;;;;;0.10;100.00;97058.78;5138863;28;20053;-63
2023/03/11 00:39:35;;;;;;;13.30;7.68;;;;;;;-0.13;100.00;97054.03;5138527;28;20050;-62
2023/03/11 00:42:02;;;;;;;16.55;8.30;;;;;;;-0.01;100.00;97048.53;5138795;27;20150;-63
2023/03/11 00:44:28;;;;;;;15.77;8.52;;;;;;;0.07;100.00;97049.50;5138489;28;20051;-65
2023/03/11 00:46:54;;;;;;;15.43;7.85;;;;;;;0.13;100.00;97036.53;5138731;27;20047;-63
2023/03/11 00:49:20;;;;;;;17.58;7.90;;;;;;;0.20;100.00;97047.50;5138452;27;20051;-62
2023/03/11 00:51:46;;;;;;;16.77;8.10;;;;;;;-0.22;100.00;97055.31;5138793;28;20192;-63
2023/03/11 00:54:12;;;;;;;13.02;7.90;;;;;;;0.11;100.00;97028.81;5138337;27;20103;-62
2023/03/11 00:56:40;;;;;;;16.58;9.40;;;;;;;0.16;100.00;97025.06;5138711;27;20055;-63
2023/03/11 00:59:06;;;;;;;16.75;8.48;;;;;;;0.06;100.00;97026.38;5137889;27;20051;-67
2023/03/11 01:01:32;;;;;;;20.45;9.50;;;;;;;0.19;100.00;97009.00;5138380;28;20047;-67
2023/03/11 01:03:58;;;;;;;16.75;9.25;;;;;;;0.40;100.00;97007.91;5138422;27;20138;-63
2023/03/11 01:06:24;;;;;;;17.25;8.85;;;;;;;-0.01;100.00;97020.81;5138045;27;20380;-62
2023/03/11 01:08:50;;;;;;;21.45;9.77;;;;;;;0.09;100.00;96998.75;5138438;28;20146;-62
2023/03/11 01:11:16;;;;;;;17.45;9.25;;;;;;;0.12;100.00;97000.75;5138178;27;20093;-64
2023/03/11 01:13:42;;;;;;;26.75;9.82;;;;;;;0.16;100.00;96998.13;5138321;28;20353;-63
2023/03/11 01:16:08;;;;;;;13.02;7.70;;;;;;;-0.03;100.00;97002.31;5137999;28;20404;-65
2023/03/11 01:18:34;;;;;;;22.00;9.90;;;;;;;0.20;100.00;96980.13;5138242;28;20095;-67
2023/03/11 01:21:00;;;;;;;25.80;11.25;;;;;;;0.10;100.00;96980.66;5138068;27;20054;-68
2023/03/11 01:23:26;;;;;;;42.65;12.00;;;;;;;0.26;100.00;96969.88;5138243;27;20478;-63
2023/03/11 01:25:53;;;;;;;25.50;10.27;;;;;;;0.31;100.00;96953.44;5137818;27;20058;-62
2023/03/11 01:28:19;;;;;;;58.78;9.55;;;;;;;0.14;100.00;96947.31;5138179;27;20047;-64
2023/03/11 01:30:45;;;;;;;21.08;10.75;;;;;;;0.43;100.00;96931.75;5137952;28;20062;-62
2023/03/11 01:33:14;;;;;;;34.85;9.98;;;;;;;0.56;100.00;96924.31;5137659;27;20055;-65
2023/03/11 01:35:42;;;;;;;60.78;12.07;;;;;;;0.39;100.00;96923.59;5137948;27;20149;-61
2023/03/11 01:38:08;;;;;;;36.47;11.85;;;;;;;0.33;100.00;96932.28;5137796;28;20134;-63
2023/03/11 01:40:37;;;;;;;33.67;12.25;;;;;;;0.50;100.00;96918.44;5137943;28;20323;-68
2023/03/11 01:43:06;;;;;;;41.95;11.75;;;;;;;0.42;100.00;96917.47;5137461;28;20476;-68
2023/03/11 01:45:41;;;;;;;41.50;12.40;;;;;;;0.53;100.00;96904.22;5137797;27;20061;-66
2023/03/11 01:48:09;;;;;;;52.17;14.30;;;;;;;0.48;100.00;96909.91;5137506;28;20199;-63
2023/03/11 01:50:37;;;;;;;23.08;11.35;;;;;;;0.69;100.00;96898.78;5137921;28;20043;-64
2023/03/11 01:53:04;;;;;;;28.50;12.38;;;;;;;0.63;100.00;96902.88;5137403;27;20051;-64
2023/03/11 01:55:31;;;;;;;29.70;12.82;;;;;;;0.78;100.00;96904.75;5137312;28;20061;-63
2023/03/11 01:57:58;;;;;;;33.88;12.38;;;;;;;0.88;100.00;96906.88;5137649;27;20046;-67
2023/03/11 02:00:25;;;;;;;31.38;12.63;;;;;;;0.76;100.00;96915.09;5137473;28;20134;-70
2023/03/11 02:02:53;;;;;;;32.25;12.45;;;;;;;0.65;100.00;96917.56;5137684;28;20141;-69
2023/03/11 02:05:21;;;;;;;31.65;12.15;;;;;;;0.65;100.00;96906.00;5137259;27;20314;-68
2023/03/11 02:07:49;;;;;;;32.08;12.77;;;;;;;0.74;100.00;96898.50;5137627;28;20127;-64
2023/03/11 02:10:16;;;;;;;34.20;11.68;;;;;;;0.76;100.00;96888.13;5139570;27;20169;-66
2023/03/11 02:12:44;;;;;;;31.05;12.95;;;;;;;0.90;100.00;96880.31;5141325;27;20051;-68
2023/03/11 02:15:11;;;;;;;58.38;13.30;;;;;;;0.83;100.00;96880.16;5141006;28;20051;-66
2023/03/11 02:17:40;;;;;;;37.15;13.95;;;;;;;0.92;100.00;96878.03;5141284;27;20419;-68
2023/03/11 02:20:19;;;;;;;32.47;13.30;;;;;;;0.93;100.00;96876.91;5140685;27;20343;-68
2023/03/11 02:22:47;;;;;;;35.65;14.18;;;;;;;0.80;100.00;96863.91;5140914;28;20176;-65
2023/03/11 02:25:25;;;;;;;50.90;13.93;;;;;;;0.82;100.00;96856.25;5140739;28;20059;-67
2023/03/11 02:27:53;;;;;;;46.08;12.38;;;;;;;0.78;100.00;96852.72;5140726;27;20146;-67
2023/03/11 02:30:21;;;;;;;47.35;14.32;;;;;;;0.84;100.00;96849.38;5141021;28;20153;-67
2023/03/11 02:32:48;;;;;;;57.45;12.88;;;;;;;0.85;100.00;96853.63;5140533;28;20142;-65
2023/03/11 02:35:16;;;;;;;36.20;15.30;;;;;;;1.01;100.00;96836.56;5140821;27;20389;-67
2023/03/11 02:37:46;;;;;;;58.70;14.18;;;;;;;0.80;100.00;96826.97;5140530;28;20138;-67
2023/03/11 02:40:36;;;;;;;56.03;14.95;;;;;;;0.75;100.00;96829.94;5140487;27;20059;-63
2023/03/11 02:43:06;;;;;;;41.03;15.20;;;;;;;0.93;100.00;96809.47;5140732;27;20047;-63
2023/03/11 02:45:33;;;;;;;64.68;13.90;;;;;;;0.92;100.00;96805.19;5140462;28;20435;-63
2023/03/11 02:48:00;;;;;;;58.65;15.68;;;;;;;0.90;100.00;96807.47;5140733;28;20523;-67
2023/03/11 02:50:28;;;;;;;33.70;14.40;;;;;;;0.99;100.00;96811.84;5140404;28;20305;-65
2023/03/11 02:52:54;;;;;;;55.65;14.35;;;;;;;0.75;100.00;96829.16;5140670;27;20043;-63
2023/03/11 02:55:20;;;;;;;38.33;14.15;;;;;;;1.00;100.00;96827.69;5140156;27;20062;-65
2023/03/11 02:57:47;;;;;;;35.83;14.48;;;;;;;0.93;100.00;96820.25;5140664;28;20137;-63
2023/03/11 03:00:16;;;;;;;44.85;14.40;;;;;;;0.92;100.00;96823.28;5140181;27;20133;-63
2023/03/11 03:02:44;;;;;;;107.15;15.68;;;;;;;0.88;100.00;96822.47;5140877;28;20047;-65
2023/03/11 03:05:11;;;;;;;33.53;14.00;;;;;;;0.85;100.00;96807.00;5139884;27;20043;-65
2023/03/11 03:07:37;;;;;;;29.33;13.98;;;;;;;0.98;100.00;96794.88;5140000;27;20047;-63
2023/03/11 03:10:05;;;;;;;44.78;14.82;;;;;;;1.05;100.00;96794.22;5139911;28;20103;-63
2023/03/11 03:12:31;;;;;;;65.00;13.73;;;;;;;1.04;100.00;96801.56;5140057;28;20051;-67
2023/03/11 03:14:57;;;;;;;45.13;14.82;;;;;;;1.24;100.00;96812.28;5140299;28;20491;-62
2023/03/11 03:17:23;;;;;;;57.70;13.80;;;;;;;0.94;100.00;96826.44;5140074;28;20047;-65
2023/03/11 03:19:49;;;;;;;42.08;14.52;;;;;;;1.24;100.00;96812.28;5139827;27;20057;-63
2023/03/11 03:22:15;;;;;;;47.03;14.88;;;;;;;0.80;100.00;96820.75;5139649;28;20051;-65
2023/03/11 03:24:41;;;;;;;67.03;15.15;;;;;;;0.98;100.00;96804.91;5139994;27;20055;-67
2023/03/11 03:27:07;;;;;;;72.93;14.70;;;;;;;0.92;100.00;96799.03;5139737;28;20078;-68
2023/03/11 03:29:33;;;;;;;45.70;13.85;;;;;;;1.17;100.00;96796.75;5140135;27;20336;-67
2023/03/11 03:31:59;;;;;;;87.00;15.70;;;;;;;0.92;100.00;96791.69;5139514;27;20055;-63
2023/03/11 03:34:25;;;;;;;56.53;15.23;;;;;;;0.94;100.00;96775.94;5139729;27;20050;-63
2023/03/11 03:36:51;;;;;;;49.20;15.10;;;;;;;1.03;100.00;96764.13;5139848;28;20134;-62
2023/03/11 03:39:18;;;;;;;57.58;14.05;;;;;;;1.08;100.00;96744.94;5139723;28;20078;-64
2023/03/11 03:41:45;;;;;;;67.20;17.27;;;;;;;1.10;100.00;96766.94;5139828;28;20130;-65
2023/03/11 03:44:10;;;;;;;59.95;15.77;;;;;;;1.17;100.00;96751.66;5139240;28;20063;-63
2023/03/11 03:46:37;;;;;;;52.35;15.05;;;;;;;0.94;100.00;96753.59;5139780;27;20103;-63
2023/03/11 03:49:03;;;;;;;38.05;15.35;;;;;;;1.06;100.00;96739.91;5139325;27;20043;-64
2023/03/11 03:51:29;;;;;;;69.53;14.35;;;;;;;1.07;100.00;96746.88;5139774;28;20054;-62
2023/03/11 03:53:55;;;;;;;58.22;15.05;;;;;;;1.18;100.00;96738.94;5139318;28;20138;-65
2023/03/11 03:56:21;;;;;;;59.72;15.63;;;;;;;0.85;100.00;96748.44;5139665;28;20074;-63
2023/03/11 03:58:47;;;;;;;49.63;14.50;;;;;;;0.98;100.00;96740.16;5139251;28;20490;-62
2023/03/11 04:01:13;;;;;;;113.95;17.00;;;;;;;1.07;100.00;96722.59;5139907;28;20051;-62
2023/03/11 04:03:39;;;;;;;57.08;14.70;;;;;;;1.18;100.00;96734.31;5139585;27;20082;-64
2023/03/11 04:06:06;;;;;;;47.05;13.82;;;;;;;0.94;100.00;96740.09;5139194;27;20087;-68
2023/03/11 04:08:33;;;;;;;109.85;14.68;;;;;;;1.11;100.00;96726.09;5139083;27;20361;-67
2023/03/11 04:10:59;;;;;;;54.35;15.95;;;;;;;1.04;100.00;96720.59;5139191;27;20134;-66
2023/03/11 04:13:25;;;;;;;124.55;16.25;;;;;;;1.05;100.00;96708.66;5139285;27;20408;-67
2023/03/11 04:15:51;;;;;;;72.53;16.70;;;;;;;1.11;100.00;96709.16;5138891;28;20145;-66
2023/03/11 04:18:17;;;;;;;134.85;16.83;;;;;;;0.97;100.00;96717.00;5139112;28;20051;-64
2023/03/11 04:20:43;;;;;;;88.03;15.73;;;;;;;1.00;100.00;96703.59;5138941;27;20111;-67
2023/03/11 04:23:09;;;;;;;100.32;16.52;;;;;;;1.11;100.00;96695.66;5139269;28;20051;-62
2023/03/11 04:25:36;;;;;;;114.40;16.58;;;;;;;1.05;100.00;96689.78;5138770;28;20145;-61
2023/03/11 04:28:02;;;;;;;110.40;17.15;;;;;;;1.01;100.00;96707.06;5139164;27;20133;-60
2023/03/11 04:30:28;;;;;;;50.10;14.95;;;;;;;1.16;100.00;96720.38;5138745;28;20152;-64
2023/03/11 04:32:54;;;;;;;47.72;16.10;;;;;;;0.75;100.00;96732.84;5137661;27;20058;-67
2023/03/11 04:35:20;;;;;;;51.20;14.55;;;;;;;0.97;100.00;96722.41;5138875;27;20051;-68
2023/03/11 04:37:46;;;;;;;47.50;14.20;;;;;;;1.09;100.00;96714.88;5138807;28;20051;-64
2023/03/11 04:40:12;;;;;;;69.50;14.40;;;;;;;0.89;100.00;96706.09;5138840;27;20108;-63
2023/03/11 04:42:39;;;;;;;64.03;14.02;;;;;;;0.69;100.00;96693.81;5138518;27;20058;-62
2023/03/11 04:45:06;;;;;;;64.03;15.88;;;;;;;0.73;100.00;96681.16;5138604;27;20055;-65
2023/03/11 04:47:32;;;;;;;40.45;15.07;;;;;;;1.02;100.00;96655.44;5138496;28;20153;-68
2023/03/11 04:49:58;;;;;;;30.05;13.00;;;;;;;0.70;100.00;96671.13;5138752;27;20405;-67
2023/03/11 04:52:24;;;;;;;48.25;13.80;;;;;;;0.82;100.00;96645.88;5138241;27;20451;-63
2023/03/11 04:54:50;;;;;;;55.65;14.70;;;;;;;0.77;100.00;96635.38;5138793;27;20047;-62
2023/03/11 04:57:16;;;;;;;36.97;15.02;;;;;;;1.08;100.00;96635.09;5138555;28;20452;-63
2023/03/11 04:59:42;;;;;;;40.33;15.32;;;;;;;1.17;100.00;96626.75;5142504;27;20451;-60
2023/03/11 05:02:08;;;;;;;32.28;14.35;;;;;;;1.47;100.00;96629.44;5140673;28;20134;-62
2023/03/11 05:04:34;;;;;;;55.15;16.90;;;;;;;1.55;100.00;96630.31;5138672;27;20138;-62
2023/03/11 05:07:00;;;;;;;54.72;17.38;;;;;;;1.20;100.00;96644.09;5141283;28;20237;-64
2023/03/11 05:09:26;;;;;;;50.85;16.73;;;;;;;1.07;100.00;96649.72;5140333;28;20047;-66
2023/03/11 05:11:52;;;;;;;51.95;17.38;;;;;;;1.07;100.00;96624.69;5139590;28;20096;-66
2023/03/11 05:14:18;;;;;;;50.63;17.55;;;;;;;0.93;100.00;96617.94;5139544;27;20133;-66
2023/03/11 05:16:44;;;;;;;46.13;17.35;;;;;;;1.33;100.00;96605.75;5140732;27;20446;-65
2023/03/11 05:21:51;;;;;;;36.90;15.13;;;;;;;1.34;100.00;96603.81;5139780;27;20051;-67
2023/03/11 05:24:17;;;;;;;35.92;16.10;;;;;;;1.13;100.00;96601.59;5139213;27;20061;-67
2023/03/11 05:26:43;;;;;;;43.13;15.95;;;;;;;1.09;100.00;96590.00;5138948;28;20047;-67
2023/03/11 05:29:09;;;;;;;42.85;16.90;;;;;;;1.35;100.00;96587.25;5137711;28;20138;-64
2023/03/11 05:31:35;;;;;;;106.13;23.52;;;;;;;1.26;100.00;96580.56;5137883;27;20051;-65
2023/03/11 05:34:02;;;;;;;127.55;28.88;;;;;;;1.45;100.00;96572.31;5137630;27;20051;-67
2023/03/11 05:36:28;;;;;;;37.47;16.27;;;;;;;1.25;100.00;96577.09;5137672;28;20065;-62
2023/03/11 05:38:54;;;;;;;47.22;17.35;;;;;;;1.11;100.00;96566.13;5137978;27;20053;-67
2023/03/11 05:41:20;;;;;;;45.65;18.10;;;;;;;1.70;100.00;96553.72;5137789;28;20074;-67
2023/03/11 05:43:46;;;;;;;44.22;19.08;;;;;;;1.93;100.00;96558.16;5137662;27;20091;-64
2023/03/11 05:46:12;;;;;;;40.70;18.25;;;;;;;1.76;100.00;96557.59;5137507;27;20094;-65
2023/03/11 05:48:38;;;;;;;36.47;16.30;;;;;;;1.51;100.00;96572.78;5137959;27;20051;-63
2023/03/11 05:51:07;;;;;;;27.80;11.98;;;;;;;1.55;100.00;96582.47;5137447;28;20047;-65
2023/03/11 05:53:33;;;;;;;32.47;15.20;;;;;;;1.76;100.00;96576.53;5137824;27;20055;-66
2023/03/11 05:56:00;;;;;;;35.17;15.82;;;;;;;1.55;100.00;96597.91;5137358;28;20187;-67
2023/03/11 05:58:27;;;;;;;24.60;13.48;;;;;;;1.42;100.00;96603.53;5137240;28;20098;-64
2023/03/11 06:00:53;;;;;;;26.83;13.10;;;;;;;1.67;100.00;96581.47;5137528;28;20134;-63
2023/03/11 06:03:19;;;;;;;38.45;16.85;;;;;;;1.68;100.00;96577.59;5137467;28;20047;-68
2023/03/11 06:05:45;;;;;;;34.50;16.25;;;;;;;1.82;100.00;96591.25;5137477;27;20379;-64
2023/03/11 06:08:12;;;;;;;47.10;19.60;;;;;;;1.95;100.00;96596.41;5137604;28;20047;-65
2023/03/11 06:10:38;;;;;;;33.67;15.68;;;;;;;1.92;100.00;96622.22;5137458;27;20058;-68
2023/03/11 06:13:04;;;;;;;33.83;16.38;;;;;;;1.94;100.00;96625.34;5137218;27;20138;-67
2023/03/11 06:15:29;;;;;;;32.63;15.02;;;;;;;2.06;100.00;96616.97;5137569;28;20207;-66
2023/03/11 06:17:55;;;;;;;32.40;14.65;;;;;;;1.64;100.00;96642.38;5137236;28;20332;-65
2023/03/11 06:20:21;;;;;;;32.95;15.95;;;;;;;1.98;100.00;96625.38;5137608;27;20374;-62
2023/03/11 06:22:48;;;;;;;35.95;16.55;;;;;;;2.01;100.00;96624.66;5137042;27;20051;-62
2023/03/11 06:25:14;;;;;;;32.90;16.77;;;;;;;2.41;100.00;96623.09;5137536;27;20142;-66
2023/03/11 06:27:40;;;;;;;34.05;15.77;;;;;;;2.55;100.00;96642.91;5136903;27;20146;-64
2023/03/11 06:30:07;;;;;;;31.35;15.07;;;;;;;2.17;100.00;96657.63;5137198;28;20062;-61
2023/03/11 06:32:34;;;;;;;30.50;14.73;;;;;;;1.92;100.00;96670.88;5137226;27;20058;-67
2023/03/11 06:35:00;;;;;;;27.55;14.10;;;;;;;2.05;100.00;96637.03;5137020;27;20062;-62
2023/03/11 06:37:26;;;;;;;29.83;14.25;;;;;;;2.04;100.00;96630.09;5137250;27;20082;-67
2023/03/11 06:39:53;;;;;;;25.52;13.85;;;;;;;2.16;100.00;96630.97;5136977;28;20047;-61
2023/03/11 06:42:23;;;;;;;30.73;14.23;;;;;;;2.30;100.00;96631.91;5137030;27;20401;-64
2023/03/11 06:44:51;;;;;;;27.13;13.93;;;;;;;2.29;100.00;96618.72;5136798;28;20082;-61
2023/03/11 06:47:19;;;;;;;27.95;13.80;;;;;;;2.10;100.00;96623.22;5137174;27;20097;-62
2023/03/11 06:49:46;;;;;;;22.15;11.82;;;;;;;2.08;100.00;96630.13;5136610;28;20047;-62
2023/03/11 06:52:12;;;;;;;25.05;12.80;;;;;;;2.32;100.00;96612.59;5136917;28;20051;-64
2023/03/11 06:54:43;;;;;;;28.85;14.65;;;;;;;2.36;100.00;96614.16;5136479;27;20211;-65
2023/03/11 06:57:12;;;;;;;30.60;14.05;;;;;;;2.67;100.00;96601.28;5139943;28;20081;-62
2023/03/11 06:59:39;;;;;;;25.13;12.48;;;;;;;2.46;100.00;96622.75;5139908;27;20047;-67
2023/03/11 07:02:06;;;;;;;34.70;14.40;;;;;;;2.98;100.00;96612.72;5140330;28;20087;-62
2023/03/11 07:04:41;;;;;;;28.48;14.13;;;;;;;2.65;100.00;96632.56;5140127;27;20142;-60
2023/03/11 07:07:07;;;;;;;31.63;14.25;;;;;;;2.65;100.00;96633.34;5123373;28;20104;-64
2023/03/11 07:09:33;;;;;;;29.92;14.15;;;;;;;2.97;100.00;96630.13;5140362;27;20057;-65
2023/03/11 07:12:01;;;;;;;31.27;15.32;;;;;;;2.85;100.00;96641.22;5121977;28;20047;-69
2023/03/11 07:14:28;;;;;;;27.73;14.45;;;;;;;2.98;100.00;96643.25;5139834;27;20055;-65
2023/03/11 07:16:57;;;;;;;32.75;13.63;;;;;;;2.94;100.00;96653.28;5139827;28;20155;-63
2023/03/11 07:19:30;;;;;;;24.35;11.95;;;;;;;2.54;100.00;96673.06;5140276;27;20156;-69
2023/03/11 07:22:01;;;;;;;28.25;14.18;;;;;;;3.28;100.00;96626.03;5121972;28;20061;-69
2023/03/11 07:24:28;;;;;;;28.00;14.65;;;;;;;3.32;100.00;96651.19;5139788;27;20055;-66
2023/03/11 07:26:58;;;;;;;23.45;12.93;;;;;;;3.23;100.00;96645.34;5139871;27;20047;-61
2023/03/11 07:29:24;;;;;;;26.40;12.57;;;;;;;3.28;100.00;96661.25;5139637;28;20054;-69
2023/03/11 07:31:56;;;;;;;33.58;13.07;;;;;;;3.13;100.00;96665.78;5139963;27;20384;-68
2023/03/11 07:34:22;;;;;;;23.02;12.55;;;;;;;3.25;100.00;96662.78;5138978;27;20074;-67
2023/03/11 07:36:48;;;;;;;26.15;11.43;;;;;;;3.24;100.00;96663.16;5139986;28;20134;-64
2023/03/11 07:39:19;;;;;;;24.48;13.55;;;;;;;3.35;100.00;96661.28;5139733;28;20055;-66
2023/03/11 07:41:46;;;;;;;32.28;14.52;;;;;;;3.37;100.00;96677.94;5139732;27;20046;-64
2023/03/11 07:44:15;;;;;;;29.38;13.23;;;;;;;3.49;100.00;96674.91;5139150;27;20043;-68
2023/03/11 07:46:42;;;;;;;24.02;11.95;;;;;;;3.63;100.00;96676.94;5139114;28;20107;-68
2023/03/11 07:49:08;;;;;;;19.67;11.27;;;;;;;3.66;100.00;96668.00;5139516;27;20142;-67
2023/03/11 07:51:36;;;;;;;25.15;12.35;;;;;;;3.64;100.00;96670.34;5139181;27;20058;-65
2023/03/11 07:54:02;;;;;;;27.63;13.07;;;;;;;3.70;100.00;96678.91;5139374;28;20519;-68
2023/03/11 07:56:30;;;;;;;24.75;11.30;;;;;;;3.57;100.00;96702.81;5139289;28;20048;-69
2023/03/11 07:58:57;;;;;;;25.25;12.02;;;;;;;4.09;100.00;96689.09;5139741;27;20134;-67
2023/03/11 08:01:25;;;;;;;22.40;12.23;;;;;;;4.21;100.00;96699.59;5139162;28;20138;-67
2023/03/11 08:03:55;;;;;;;20.58;11.15;;;;;;;4.30;100.00;96708.16;5139378;27;20047;-70
2023/03/11 08:06:24;;;;;;;19.52;11.10;;;;;;;4.25;100.00;96724.81;5138453;27;20314;-69
2023/03/11 08:08:50;;;;;;;14.45;8.23;;;;;;;3.90;100.00;96733.56;5138736;27;20086;-71
2023/03/11 08:11:20;;;;;;;17.73;10.57;;;;;;;3.93;100.00;96730.88;5138919;28;20094;-69
2023/03/11 08:13:46;;;;;;;23.42;11.43;;;;;;;4.49;100.00;96724.09;5139152;28;20428;-63
2023/03/11 08:16:15;;;;;;;22.13;10.80;;;;;;;4.39;100.00;96762.81;5139211;28;20047;-69
2023/03/11 08:18:43;;;;;;;23.60;11.25;;;;;;;4.61;100.00;96762.91;5138769;27;20047;-64
2023/03/11 08:21:11;;;;;;;18.50;11.30;;;;;;;4.42;100.00;96785.69;5139307;28;20143;-70
2023/03/11 08:23:38;;;;;;;27.63;11.57;;;;;;;4.78;100.00;96766.81;5139070;28;20416;-64
2023/03/11 08:26:05;;;;;;;20.77;11.18;;;;;;;5.07;100.00;96800.22;5139168;28;20146;-69
2023/03/11 08:28:32;;;;;;;19.67;10.43;;;;;;;4.84;100.00;96841.28;5138390;27;20145;-66
2023/03/11 08:30:58;;;;;;;17.55;10.13;;;;;;;4.92;100.00;96867.28;5138643;28;20141;-69
2023/03/11 08:33:26;;;;;;;19.48;10.43;;;;;;;4.97;100.00;96863.44;5138604;28;20054;-67
2023/03/11 08:35:53;;;;;;;20.48;10.68;;;;;;;4.73;100.00;96881.94;5138987;27;20051;-64
2023/03/11 08:38:18;;;;;;;20.05;11.45;;;;;;;4.99;100.00;96867.28;5138934;28;20305;-66
2023/03/11 08:40:45;;;;;;;20.17;11.82;;;;;;;4.85;100.00;96868.03;5138549;28;20058;-64
2023/03/11 08:43:12;;;;;;;18.75;11.88;;;;;;;4.66;100.00;96858.25;5138650;28;20055;-63
2023/03/11 08:45:39;;;;;;;18.05;11.30;;;;;;;4.63;100.00;96850.09;5138566;28;20332;-65
2023/03/11 08:48:05;;;;;;;21.05;11.00;;;;;;;4.79;100.00;96828.84;5138845;28;20487;-71
2023/03/11 08:50:32;;;;;;;23.20;10.38;;;;;;;4.89;100.00;96830.81;5138471;28;20078;-69
2023/03/11 08:53:02;;;;;;;23.05;11.90;;;;;;;5.16;100.00;96825.03;5138589;28;20054;-66
2023/03/11 08:55:30;;;;;;;22.30;10.63;;;;;;;5.02;100.00;96836.66;5138259;28;20050;-66
2023/03/11 08:57:57;;;;;;;18.90;9.85;;;;;;;5.42;100.00;96837.50;5138711;28;20156;-69
2023/03/11 09:00:23;;;;;;;18.88;10.88;;;;;;;5.15;100.00;96877.81;5137934;28;20115;-67
2023/03/11 09:02:49;;;;;;;15.45;8.75;;;;;;;5.22;100.00;96883.25;5138514;27;20059;-64
2023/03/11 09:05:16;;;;;;;16.83;10.07;;;;;;;5.40;100.00;96880.59;5138250;27;20047;-65
2023/03/11 09:07:41;;;;;;;17.50;9.75;;;;;;;5.63;100.00;96885.66;5137168;27;20051;-64
2023/03/11 09:10:10;;;;;;;21.80;11.10;;;;;;;6.22;100.00;96893.44;5138125;27;20380;-63
2023/03/11 09:12:36;;;;;;;21.77;11.25;;;;;;;6.18;100.00;96925.31;5137901;27;20047;-63
2023/03/11 09:15:03;;;;;;;26.75;10.88;;;;;;;7.34;100.00;96919.88;5137679;27;20093;-64
2023/03/11 09:17:29;;;;;;;14.23;8.82;;;;;;;6.65;100.00;96853.25;5137684;28;20054;-69
2023/03/11 09:19:56;;;;;;;14.82;9.50;;;;;;;7.16;100.00;96804.75;5137625;27;20047;-64
2023/03/11 09:22:22;;;;;;;19.58;8.95;;;;;;;6.71;100.00;96731.88;5137842;28;20134;-70
2023/03/11 09:24:50;;;;;;;15.30;8.30;;;;;;;6.35;100.00;96726.63;5138180;28;20050;-63
2023/03/11 09:27:16;;;;;;;13.73;7.70;;;;;;;6.45;100.00;96806.66;5137776;28;20120;-64
2023/03/11 09:29:42;;;;;;;14.25;8.95;;;;;;;6.44;100.00;96843.22;5138386;28;20431;-70
2023/03/11 09:32:11;;;;;;;13.52;7.78;;;;;;;6.39;100.00;96791.91;5137592;28;20047;-66
2023/03/11 09:34:37;;;;;;;18.55;8.20;;;;;;;6.15;100.00;96811.81;5137540;27;20058;-66
2023/03/11 09:37:03;;;;;;;19.17;8.77;;;;;;;6.35;100.00;96802.81;5137867;28;20093;-64
2023/03/11 09:39:29;;;;;;;17.00;7.97;;;;;;;6.43;100.00;96726.59;5137728;28;20426;-63
2023/03/11 09:41:57;;;;;;;15.10;8.88;;;;;;;6.44;100.00;96747.97;5138115;27;20053;-62
2023/03/11 09:44:31;;;;;;;15.32;8.65;;;;;;;6.81;100.00;96690.19;5137583;27;20051;-66
2023/03/11 09:47:32;;;;;;;15.40;9.65;;;;;;;6.97;100.00;96665.19;5137707;28;20051;-70
2023/03/11 09:50:30;;;;;;;14.45;8.45;;;;;;;7.25;100.00;96625.22;5137428;28;20384;-64
2023/03/11 09:53:17;;;;;;;9.77;6.45;;;;;;;6.74;100.00;96528.81;5055052;28;20131;-63
2023/03/11 09:55:45;;;;;;;14.30;7.82;;;;;;;7.11;100.00;96559.97;5130960;27;20469;-69
2023/03/11 09:58:17;;;;;;;15.82;8.05;;;;;;;7.49;100.00;96542.41;5137249;27;20127;-68
2023/03/11 10:00:43;;;;;;;13.50;7.60;;;;;;;7.69;100.00;96517.22;5137670;28;20089;-62
2023/03/11 10:03:24;;;;;;;14.82;8.38;;;;;;;8.12;100.00;96402.78;5137335;28;20061;-64
2023/03/11 10:05:51;;;;;;;16.98;8.43;;;;;;;8.35;100.00;96297.50;5137689;27;20079;-64
2023/03/11 10:08:25;;;;;;;14.73;7.35;;;;;;;8.59;100.00;96139.84;5137239;28;20138;-68
2023/03/11 10:10:58;;;;;;;13.68;7.38;;;;;;;8.31;100.00;96021.91;5137424;27;20055;-64
2023/03/11 10:13:29;;;;;;;16.60;7.37;;;;;;;7.89;100.00;96035.31;5137339;28;20499;-68
2023/03/11 10:16:04;;;;;;;12.73;7.53;;;;;;;8.62;100.00;96027.03;5137223;28;20295;-66
2023/03/11 10:18:36;;;;;;;;;;;;;;;8.06;100.00;96055.22;5138050;27;20091;-70
2023/03/11 10:21:11;;;;;;;11.80;7.53;;;;;;;6.83;100.00;96257.59;5137095;28;20018;-64
2023/03/11 10:23:56;;;;;;;12.98;7.45;;;;;;;6.95;100.00;96454.28;5137567;27;20500;-66
2023/03/11 10:26:30;;;;;;;15.65;7.28;;;;;;;6.79;100.00;96509.31;5137178;28;20047;-70
2023/03/11 10:28:59;;;;;;;;;;;;;;;6.70;100.00;96552.59;5137344;27;20428;-66
2023/03/11 10:31:31;;;;;;;13.52;7.22;;;;;;;6.65;100.00;96604.75;5139151;27;19988;-65
2023/03/11 10:34:02;;;;;;;12.57;7.45;;;;;;;6.57;100.00;96655.75;5140640;27;20173;-63
2023/03/11 10:36:34;;;;;;;11.35;6.55;;;;;;;6.48;100.00;96677.97;5140963;27;20051;-71
2023/03/11 10:39:02;;;;;;;15.38;7.63;;;;;;;6.65;100.00;96710.91;5140523;28;20055;-67
2023/03/11 10:41:31;;;;;;;12.88;7.18;;;;;;;6.48;100.00;96715.28;5140969;27;20090;-67
2023/03/11 10:44:06;;;;;;;13.70;7.47;;;;;;;6.70;100.00;96713.22;5140417;28;20051;-66
2023/03/11 10:46:32;;;;;;;13.50;7.93;;;;;;;6.51;100.00;96715.28;5140585;27;20065;-64
2023/03/11 10:48:58;;;;;;;13.55;7.00;;;;;;;6.41;100.00;96712.63;5140725;28;20309;-67
2023/03/11 10:51:30;;;;;;;17.60;7.35;;;;;;;6.67;100.00;96706.63;5140596;28;20062;-64
2023/03/11 10:53:58;;;;;;;14.50;7.40;;;;;;;6.89;100.00;96692.84;5140643;28;20208;-65
2023/03/11 10:56:28;;;;;;;13.68;7.50;;;;;;;6.92;100.00;96659.38;5140178;28;20434;-69
2023/03/11 10:58:54;;;;;;;15.23;8.00;;;;;;;7.18;100.00;96663.44;5140602;28;20051;-63
2023/03/11 11:01:21;;;;;;;13.75;7.53;;;;;;;7.86;100.00;96554.41;5140318;28;20556;-64
2023/03/11 11:03:48;;;;;;;15.50;7.78;;;;;;;7.86;100.00;96381.78;5140574;28;20601;-63
2023/03/11 11:06:28;;;;;;;12.25;6.90;;;;;;;7.58;100.00;96255.66;5139987;27;20366;-70
2023/03/11 11:09:09;;;;;;;19.60;8.20;;;;;;;7.64;100.00;96179.59;5140477;27;20285;-69
2023/03/11 11:11:38;;;;;;;12.50;7.15;;;;;;;7.35;100.00;96152.84;5140250;28;20051;-64
2023/03/11 11:14:08;;;;;;;14.25;7.63;;;;;;;7.19;100.00;96261.72;5139985;28;20423;-63
2023/03/11 11:16:34;;;;;;;14.20;8.05;;;;;;;7.58;100.00;96323.03;5140265;28;20138;-70
2023/03/11 11:19:04;;;;;;;14.07;7.68;;;;;;;7.30;100.00;96282.19;5139924;28;20047;-64
2023/03/11 11:21:34;;;;;;;13.18;7.32;;;;;;;6.99;100.00;96352.28;5140266;27;20342;-67
2023/03/11 11:24:08;;;;;;;15.30;7.55;;;;;;;6.99;100.00;96436.72;5139898;28;20047;-66